createdAt,value
2022-10-03T00:02:41.856Z,378.95
2022-10-03T00:05:36.212Z,385.77
2022-10-03T00:08:39.995Z,376.75
2022-10-03T00:11:21.716Z,381.80
2022-10-03T00:13:48.233Z,360.63
2022-10-03T00:16:36.538Z,366.90
2022-10-03T00:19:40.830Z,359.58
2022-10-03T00:22:28.913Z,367.17
2022-10-03T00:25:16.941Z,364.80
2022-10-03T00:27:54.233Z,378.07
2022-10-03T00:30:25.093Z,376.85
2022-10-03T00:33:03.193Z,370.88
2022-10-03T00:35:54.131Z,389.38
2022-10-03T00:38:54.987Z,383.85
2022-10-03T00:41:46.290Z,388.93
2022-10-03T00:44:19.032Z,375.70
2022-10-03T00:47:00.240Z,393.40
2022-10-03T00:49:50.050Z,400.17
2022-10-03T00:52:44.506Z,392.90
2022-10-03T00:55:55.186Z,400.15
2022-10-03T00:58:30.938Z,401.50
2022-10-03T01:01:20.807Z,395.83
2022-10-03T01:04:00.818Z,383.05
2022-10-03T01:06:52.074Z,380.55
2022-10-03T01:09:36.834Z,401.85
2022-10-03T01:12:39.023Z,388.02
2022-10-03T01:15:08.551Z,376.75
2022-10-03T01:17:48.028Z,391.48
2022-10-03T01:20:20.405Z,382.95
2022-10-03T01:23:14.925Z,387.63
2022-10-03T01:26:04.809Z,374.08
2022-10-03T01:28:55.737Z,392.27
2022-10-03T01:31:52.798Z,396.20
2022-10-03T01:34:48.429Z,382.80
2022-10-03T01:37:29.481Z,386.63
2022-10-03T01:40:08.857Z,381.88
2022-10-03T01:42:39.055Z,377.73
2022-10-03T01:45:15.248Z,387.92
2022-10-03T01:47:51.443Z,386.48
2022-10-03T01:50:17.981Z,369.45
2022-10-03T01:53:04.639Z,387.38
2022-10-03T01:55:48.744Z,390.45
2022-10-03T01:58:29.364Z,392.92
2022-10-03T02:01:07.401Z,386.77
2022-10-03T02:03:47.276Z,378.08
2022-10-03T02:06:17.429Z,389.38
2022-10-03T02:08:55.299Z,405.87
2022-10-03T02:12:05.075Z,392.52
2022-10-03T02:14:34.662Z,399.02
2022-10-03T02:17:30.700Z,385.80
2022-10-03T02:20:08.679Z,397.20
2022-10-03T02:22:42.622Z,397.60
2022-10-03T02:25:24.409Z,388.70
2022-10-03T02:28:11.983Z,389.35
2022-10-03T02:31:15.873Z,388.17
2022-10-03T02:33:54.170Z,388.52
2022-10-03T02:36:48.166Z,385.02
2022-10-03T02:39:39.085Z,383.27
2022-10-03T02:42:41.517Z,367.17
2022-10-03T02:45:32.930Z,375.73
2022-10-03T02:48:38.560Z,384.42
2022-10-03T02:51:18.031Z,379.63
2022-10-03T02:53:48.409Z,367.40
2022-10-03T02:56:30.004Z,389.63
2022-10-03T02:59:21.514Z,383.07
2022-10-03T03:01:51.174Z,384.85
2022-10-03T03:04:29.903Z,395.98
2022-10-03T03:07:16.645Z,410.23
2022-10-03T03:10:03.440Z,394.65
2022-10-03T03:13:01.003Z,415.10
2022-10-03T03:16:09.023Z,397.73
2022-10-03T03:18:58.849Z,405.70
2022-10-03T03:21:50.312Z,395.25
2022-10-03T03:24:33.347Z,402.40
2022-10-03T03:27:18.200Z,402.70
2022-10-03T03:30:03.075Z,393.92
2022-10-03T03:32:47.271Z,404.70
2022-10-03T03:35:48.253Z,388.08
2022-10-03T03:38:52.073Z,405.73
2022-10-03T03:41:18.618Z,397.15
2022-10-03T03:43:56.696Z,384.67
2022-10-03T03:46:38.670Z,391.05
2022-10-03T03:49:16.568Z,398.37
2022-10-03T03:51:57.930Z,393.13
2022-10-03T03:54:38.009Z,397.42
2022-10-03T03:57:35.540Z,382.83
2022-10-03T04:00:08.088Z,393.58
2022-10-03T04:02:38.376Z,381.42
2022-10-03T04:05:08.424Z,365.95
2022-10-03T04:07:50.415Z,368.88
2022-10-03T04:10:42.294Z,363.70
2022-10-03T04:13:29.053Z,363.95
2022-10-03T04:16:43.425Z,378.20
2022-10-03T04:19:31.844Z,369.25
2022-10-03T04:22:26.904Z,361.23
2022-10-03T04:25:05.453Z,371.52
2022-10-03T04:28:10.873Z,354.50
2022-10-03T04:30:57.886Z,366.48
2022-10-03T04:33:43.284Z,362.60
2022-10-03T04:36:18.832Z,361.83
2022-10-03T04:39:06.963Z,342.52
2022-10-03T04:41:43.266Z,353.48
2022-10-03T04:44:28.747Z,364.17
2022-10-03T04:47:02.816Z,353.48
2022-10-03T04:49:56.273Z,361.25
2022-10-03T04:52:39.457Z,355.85
2022-10-03T04:55:32.681Z,350.77
2022-10-03T04:58:22.925Z,357.13
2022-10-03T05:01:15.558Z,381.90
2022-10-03T05:03:43.455Z,356.15
2022-10-03T05:06:19.464Z,340.85
2022-10-03T05:09:01.564Z,350.85
2022-10-03T05:11:43.370Z,348.58
2022-10-03T05:14:12.625Z,346.35
2022-10-03T05:16:43.037Z,338.75
2022-10-03T05:19:29.548Z,338.40
2022-10-03T05:22:19.376Z,362.52
2022-10-03T05:25:16.032Z,364.55
2022-10-03T05:27:59.151Z,361.98
2022-10-03T05:30:53.359Z,363.03
2022-10-03T05:33:39.540Z,357.75
2022-10-03T05:36:34.833Z,358.92
2022-10-03T05:39:19.752Z,348.52
2022-10-03T05:42:17.784Z,361.58
2022-10-03T05:44:45.424Z,364.90
2022-10-03T05:47:46.311Z,374.15
2022-10-03T05:50:27.734Z,355.65
2022-10-03T05:53:10.843Z,370.07
2022-10-03T05:55:49.425Z,357.70
2022-10-03T05:58:20.136Z,351.07
2022-10-03T06:01:08.690Z,343.70
2022-10-03T06:03:59.329Z,352.77
2022-10-03T06:06:46.780Z,337.03
2022-10-03T06:09:40.508Z,345.38
2022-10-03T06:12:22.386Z,344.20
2022-10-03T06:15:03.211Z,346.17
2022-10-03T06:17:45.251Z,317.03
2022-10-03T06:20:48.957Z,328.23
2022-10-03T06:23:42.378Z,334.90
2022-10-03T06:26:27.009Z,331.65
2022-10-03T06:29:15.433Z,334.85
2022-10-03T06:32:01.024Z,320.77
2022-10-03T06:34:39.509Z,317.02
2022-10-03T06:37:53.745Z,331.05
2022-10-03T06:40:32.303Z,340.93
2022-10-03T06:43:11.362Z,318.20
2022-10-03T06:45:52.951Z,329.85
2022-10-03T06:48:36.252Z,322.85
2022-10-03T06:51:40.630Z,326.08
2022-10-03T06:54:29.238Z,338.60
2022-10-03T06:57:23.562Z,320.90
2022-10-03T07:00:06.616Z,319.43
2022-10-03T07:03:18.966Z,343.60
2022-10-03T07:05:48.093Z,336.75
2022-10-03T07:08:30.268Z,332.08
2022-10-03T07:11:26.802Z,321.20
2022-10-03T07:14:38.813Z,332.98
2022-10-03T07:17:28.202Z,310.60
2022-10-03T07:20:08.518Z,305.50
2022-10-03T07:22:59.025Z,297.23
2022-10-03T07:25:33.145Z,302.40
2022-10-03T07:28:17.949Z,288.77
2022-10-03T07:30:59.688Z,268.90
2022-10-03T07:33:52.864Z,291.90
2022-10-03T07:37:11.557Z,282.80
2022-10-03T07:39:45.349Z,283.48
2022-10-03T07:42:46.945Z,279.95
2022-10-03T07:45:30.310Z,290.02
2022-10-03T07:48:21.339Z,297.50
2022-10-03T07:51:02.968Z,297.17
2022-10-03T07:54:01.255Z,295.80
2022-10-03T07:56:45.766Z,290.70
2022-10-03T07:59:12.290Z,294.65
2022-10-03T08:01:47.807Z,289.88
2022-10-03T08:04:39.018Z,279.58
2022-10-03T08:07:09.264Z,263.58
2022-10-03T08:09:55.270Z,249.10
2022-10-03T08:12:44.172Z,254.37
2022-10-03T08:15:22.601Z,250.10
2022-10-03T08:17:58.243Z,254.48
2022-10-03T08:20:49.083Z,244.13
2022-10-03T08:23:54.027Z,253.80
2022-10-03T08:26:50.114Z,249.32
2022-10-03T08:29:38.129Z,249.63
2022-10-03T08:32:41.848Z,280.10
2022-10-03T08:35:37.481Z,205.52
2022-10-03T08:38:24.978Z,206.95
2022-10-03T08:41:15.690Z,224.77
2022-10-03T08:44:19.866Z,233.38
2022-10-03T08:46:52.585Z,244.82
2022-10-03T08:49:51.773Z,249.70
2022-10-03T08:52:28.076Z,236.75
2022-10-03T08:55:06.159Z,227.40
2022-10-03T08:57:57.273Z,217.52
2022-10-03T09:00:52.799Z,219.07
2022-10-03T09:03:40.521Z,212.15
2022-10-03T09:06:31.009Z,212.00
2022-10-03T09:09:00.407Z,205.60
2022-10-03T09:11:49.621Z,190.77
2022-10-03T09:14:21.988Z,175.37
2022-10-03T09:17:09.908Z,171.50
2022-10-03T09:20:04.344Z,164.43
2022-10-03T09:22:55.980Z,163.07
2022-10-03T09:25:58.054Z,161.90
2022-10-03T09:28:32.073Z,153.02
2022-10-03T09:31:19.300Z,151.20
2022-10-03T09:33:51.801Z,133.10
2022-10-03T09:36:27.486Z,131.02
2022-10-03T09:39:12.863Z,118.70
2022-10-03T09:42:01.944Z,137.45
2022-10-03T09:44:53.099Z,115.17
2022-10-03T09:47:42.901Z,122.15
2022-10-03T09:50:28.645Z,126.55
2022-10-03T09:53:24.687Z,136.30
2022-10-03T09:56:09.679Z,150.73
2022-10-03T09:58:44.954Z,151.52
2022-10-03T10:01:29.537Z,147.55
2022-10-03T10:04:53.634Z,139.23
2022-10-03T10:07:48.318Z,139.75
2022-10-03T10:10:18.371Z,135.85
2022-10-03T10:12:59.916Z,142.87
2022-10-03T10:15:47.461Z,130.18
2022-10-03T10:18:29.314Z,124.05
2022-10-03T10:21:16.356Z,114.10
2022-10-03T10:24:07.515Z,110.07
2022-10-03T10:27:17.656Z,112.75
2022-10-03T10:30:22.023Z,136.57
2022-10-03T10:33:27.297Z,141.38
2022-10-03T10:35:53.865Z,130.43
2022-10-03T10:38:30.648Z,124.25
2022-10-03T10:41:12.712Z,150.15
2022-10-03T10:43:58.238Z,145.20
2022-10-03T10:46:42.352Z,132.40
2022-10-03T10:49:15.139Z,155.85
2022-10-03T10:52:03.330Z,142.17
2022-10-03T10:54:49.074Z,125.90
2022-10-03T10:57:24.137Z,124.30
2022-10-03T11:00:21.809Z,121.75
2022-10-03T11:03:26.036Z,123.60
2022-10-03T11:06:11.550Z,111.80
2022-10-03T11:08:56.843Z,114.68
2022-10-03T11:12:01.530Z,105.30
2022-10-03T11:14:35.391Z,99.07
2022-10-03T11:17:04.620Z,93.93
2022-10-03T11:19:49.774Z,80.30
2022-10-03T11:22:41.380Z,91.65
2022-10-03T11:25:47.977Z,110.38
2022-10-03T11:28:42.951Z,82.45
2022-10-03T11:31:46.480Z,88.93
2022-10-03T11:34:48.060Z,106.88
2022-10-03T11:37:33.208Z,133.02
2022-10-03T11:40:47.401Z,136.98
2022-10-03T11:43:34.903Z,143.02
2022-10-03T11:46:13.681Z,154.55
2022-10-03T11:48:52.016Z,154.20
2022-10-03T11:51:43.660Z,147.90
2022-10-03T11:54:32.420Z,160.00
2022-10-03T11:57:08.691Z,170.93
2022-10-03T11:59:44.750Z,178.15
2022-10-03T12:02:16.434Z,194.18
2022-10-03T12:04:59.798Z,186.75
2022-10-03T12:08:22.905Z,190.52
2022-10-03T12:11:14.154Z,179.03
2022-10-03T12:14:10.925Z,172.52
2022-10-03T12:16:44.592Z,141.50
2022-10-03T12:19:30.936Z,134.57
2022-10-03T12:22:07.389Z,145.43
2022-10-03T12:24:37.711Z,134.73
2022-10-03T12:27:10.019Z,108.85
2022-10-03T12:29:45.919Z,103.47
2022-10-03T12:32:40.074Z,121.33
2022-10-03T12:35:44.214Z,125.47
2022-10-03T12:38:29.617Z,129.52
2022-10-03T12:41:05.393Z,129.95
2022-10-03T12:43:43.885Z,122.38
2022-10-03T12:46:45.757Z,112.55
2022-10-03T12:49:17.872Z,91.80
2022-10-03T12:52:01.089Z,71.68
2022-10-03T12:54:53.343Z,56.80
2022-10-03T12:57:47.846Z,84.20
2022-10-03T13:00:24.096Z,112.35
2022-10-03T13:02:58.220Z,94.23
2022-10-03T13:05:40.579Z,93.50
2022-10-03T13:08:37.428Z,94.25
2022-10-03T13:11:35.647Z,51.15
2022-10-03T13:14:28.220Z,25.27
2022-10-03T13:17:09.881Z,10.93
2022-10-03T13:19:55.330Z,14.50
2022-10-03T13:22:29.158Z,10.87
2022-10-03T13:25:02.184Z,12.30
2022-10-03T13:27:40.721Z,14.60
2022-10-03T13:30:16.653Z,12.30
2022-10-03T13:32:49.728Z,15.63
2022-10-03T13:35:58.222Z,15.98
2022-10-03T13:38:49.059Z,12.88
2022-10-03T13:41:42.234Z,14.32
2022-10-03T13:44:24.069Z,8.25
2022-10-03T13:46:57.160Z,10.25
2022-10-03T13:49:34.530Z,7.63
2022-10-03T13:52:16.446Z,10.07
2022-10-03T13:55:00.939Z,12.80
2022-10-03T13:57:35.657Z,10.25
2022-10-03T14:00:12.883Z,8.55
2022-10-03T14:03:21.441Z,11.68
2022-10-03T14:06:15.095Z,14.60
2022-10-03T14:09:16.573Z,14.50
2022-10-03T14:11:50.245Z,16.92
2022-10-03T14:14:41.906Z,17.98
2022-10-03T14:17:20.602Z,16.98
2022-10-03T14:20:06.359Z,12.32
2022-10-03T14:22:42.224Z,12.70
2022-10-03T14:25:22.516Z,12.07
2022-10-03T14:27:54.391Z,10.85
2022-10-03T14:31:05.114Z,8.90
2022-10-03T14:33:38.785Z,7.65
2022-10-03T14:36:29.386Z,9.85
2022-10-03T14:39:22.825Z,11.63
2022-10-03T14:41:52.507Z,13.27
2022-10-03T14:44:22.825Z,16.02
2022-10-03T14:47:10.305Z,14.98
2022-10-03T14:49:54.862Z,14.10
2022-10-03T14:52:42.807Z,15.48
2022-10-03T14:55:18.969Z,15.20
2022-10-03T14:58:11.434Z,12.95
2022-10-03T15:01:13.477Z,9.75
2022-10-03T15:04:07.848Z,12.50
2022-10-03T15:06:46.257Z,10.73
2022-10-03T15:09:25.174Z,17.77
2022-10-03T15:12:22.367Z,21.00
2022-10-03T15:15:01.589Z,35.05
2022-10-03T15:17:31.675Z,35.65
2022-10-03T15:20:01.402Z,32.15
2022-10-03T15:22:37.793Z,38.58
2022-10-03T15:25:18.512Z,31.27
2022-10-03T15:27:54.112Z,27.63
2022-10-03T15:30:33.805Z,26.50
2022-10-03T15:33:15.538Z,31.35
2022-10-03T15:35:48.337Z,40.55
2022-10-03T15:38:18.320Z,34.90
2022-10-03T15:41:13.485Z,29.67
2022-10-03T15:44:00.721Z,45.77
2022-10-03T15:46:43.387Z,35.75
2022-10-03T15:49:24.693Z,24.15
2022-10-03T15:51:53.100Z,24.55
2022-10-03T15:54:26.353Z,30.58
2022-10-03T15:57:03.382Z,22.55
2022-10-03T15:59:37.057Z,23.50
2022-10-03T16:02:19.132Z,27.23
2022-10-03T16:04:47.841Z,29.90
2022-10-03T16:07:46.110Z,21.17
2022-10-03T16:10:14.677Z,33.13
2022-10-03T16:12:56.452Z,27.65
2022-10-03T16:15:49.308Z,31.67
2022-10-03T16:18:18.875Z,33.97
2022-10-03T16:20:56.753Z,41.08
2022-10-03T16:23:37.743Z,45.75
2022-10-03T16:26:12.957Z,48.88
2022-10-03T16:28:50.653Z,56.47
2022-10-03T16:31:30.187Z,60.23
2022-10-03T16:34:06.765Z,70.40
2022-10-03T16:36:42.781Z,85.15
2022-10-03T16:39:25.088Z,95.18
2022-10-03T16:41:56.898Z,114.05
2022-10-03T16:44:42.418Z,130.70
2022-10-03T16:47:09.904Z,142.52
2022-10-03T16:50:13.592Z,146.95
2022-10-03T16:52:56.797Z,176.85
2022-10-03T16:55:39.060Z,192.10
2022-10-03T16:58:10.610Z,199.68
2022-10-03T17:01:26.240Z,205.18
2022-10-03T17:03:59.935Z,205.55
2022-10-03T17:06:33.189Z,225.93
2022-10-03T17:09:07.754Z,230.02
2022-10-03T17:11:38.374Z,231.30
2022-10-03T17:14:08.583Z,223.73
2022-10-03T17:16:47.583Z,221.02
2022-10-03T17:19:27.001Z,226.02
2022-10-03T17:22:00.419Z,241.05
2022-10-03T17:24:45.306Z,240.60
2022-10-03T17:27:36.659Z,258.75
2022-10-03T17:30:25.028Z,236.27
2022-10-03T17:33:03.653Z,244.77
2022-10-03T17:35:52.506Z,239.33
2022-10-03T17:38:49.467Z,249.38
2022-10-03T17:41:24.448Z,272.88
2022-10-03T17:44:12.101Z,271.60
2022-10-03T17:46:51.577Z,274.85
2022-10-03T17:49:23.773Z,277.25
2022-10-03T17:51:52.948Z,255.32
2022-10-03T17:54:29.653Z,272.95
2022-10-03T17:57:38.518Z,278.70
2022-10-03T18:00:18.994Z,257.80
2022-10-03T18:03:01.476Z,246.73
2022-10-03T18:05:38.997Z,257.70
2022-10-03T18:08:14.231Z,273.60
2022-10-03T18:10:49.236Z,261.67
2022-10-03T18:13:24.661Z,265.53
2022-10-03T18:16:21.099Z,268.05
2022-10-03T18:18:47.736Z,262.00
2022-10-03T18:21:17.515Z,252.93
2022-10-03T18:24:21.678Z,260.60
2022-10-03T18:27:11.651Z,258.20
2022-10-03T18:30:02.159Z,269.55
2022-10-03T18:32:32.554Z,270.40
2022-10-03T18:35:22.238Z,272.30
2022-10-03T18:38:08.211Z,282.23
2022-10-03T18:40:44.889Z,275.90
2022-10-03T18:43:49.279Z,280.33
2022-10-03T18:46:42.683Z,292.20
2022-10-03T18:49:36.021Z,281.02
2022-10-03T18:52:25.417Z,284.55
2022-10-03T18:55:03.745Z,287.60
2022-10-03T18:57:54.248Z,297.98
2022-10-03T19:00:26.572Z,278.83
2022-10-03T19:02:58.998Z,287.83
2022-10-03T19:05:33.288Z,274.30
2022-10-03T19:08:10.253Z,290.25
2022-10-03T19:10:50.855Z,277.73
2022-10-03T19:13:45.591Z,286.77
2022-10-03T19:16:30.794Z,286.77
2022-10-03T19:19:12.383Z,297.30
2022-10-03T19:21:41.712Z,292.25
2022-10-03T19:24:53.347Z,290.05
2022-10-03T19:27:38.962Z,306.02
2022-10-03T19:30:09.423Z,288.13
2022-10-03T19:32:53.929Z,300.85
2022-10-03T19:35:23.013Z,311.13
2022-10-03T19:37:57.394Z,311.30
2022-10-03T19:40:33.007Z,309.87
2022-10-03T19:43:32.081Z,302.63
2022-10-03T19:46:36.050Z,310.15
2022-10-03T19:49:05.721Z,330.33
2022-10-03T19:51:35.276Z,323.10
2022-10-03T19:54:11.433Z,328.63
2022-10-03T19:56:38.284Z,319.05
2022-10-03T19:59:12.622Z,311.08
2022-10-03T20:01:47.397Z,319.13
2022-10-03T20:04:18.977Z,315.48
2022-10-03T20:06:49.872Z,313.73
2022-10-03T20:10:00.994Z,321.20
2022-10-03T20:12:31.337Z,316.48
2022-10-03T20:15:05.476Z,318.30
2022-10-03T20:17:33.141Z,319.67
2022-10-03T20:20:07.839Z,326.02
2022-10-03T20:22:41.793Z,316.92
2022-10-03T20:25:26.469Z,325.23
2022-10-03T20:28:00.938Z,336.80
2022-10-03T20:30:39.961Z,339.70
2022-10-03T20:33:10.246Z,343.20
2022-10-03T20:35:45.997Z,330.50
2022-10-03T20:38:28.539Z,327.95
2022-10-03T20:41:15.540Z,351.02
2022-10-03T20:44:23.726Z,334.60
2022-10-03T20:46:57.768Z,335.97
2022-10-03T20:49:37.081Z,340.35
2022-10-03T20:52:07.403Z,343.23
2022-10-03T20:54:54.303Z,332.05
2022-10-03T20:57:26.974Z,312.75
2022-10-03T21:00:11.611Z,333.60
2022-10-03T21:02:38.160Z,316.07
2022-10-03T21:05:11.163Z,336.92
2022-10-03T21:07:43.562Z,331.60
2022-10-03T21:10:32.976Z,360.27
2022-10-03T21:13:08.892Z,352.48
2022-10-03T21:16:16.068Z,346.20
2022-10-03T21:18:47.614Z,368.85
2022-10-03T21:21:27.856Z,360.75
2022-10-03T21:24:12.975Z,372.40
2022-10-03T21:26:47.663Z,376.38
2022-10-03T21:29:15.806Z,379.20
2022-10-03T21:32:05.477Z,380.10
2022-10-03T21:34:45.234Z,381.45
2022-10-03T21:37:16.888Z,365.30
2022-10-03T21:39:56.652Z,376.77
2022-10-03T21:42:40.790Z,394.85
2022-10-03T21:45:22.218Z,380.42
2022-10-03T21:48:01.313Z,378.90
2022-10-03T21:50:31.794Z,396.30
2022-10-03T21:53:18.708Z,384.30
2022-10-03T21:55:53.031Z,400.85
2022-10-03T21:58:38.961Z,405.38
2022-10-03T22:01:29.869Z,389.60
2022-10-03T22:04:11.342Z,370.35
2022-10-03T22:07:35.903Z,378.92
2022-10-03T22:10:03.676Z,374.98
2022-10-03T22:12:40.440Z,376.73
2022-10-03T22:15:19.720Z,390.97
2022-10-03T22:17:57.840Z,393.48
2022-10-03T22:20:32.944Z,393.70
2022-10-03T22:23:14.014Z,384.87
2022-10-03T22:26:02.672Z,387.42
2022-10-03T22:28:52.249Z,400.80
2022-10-03T22:31:51.412Z,398.73
2022-10-03T22:34:42.918Z,396.50
2022-10-03T22:37:10.007Z,396.20
2022-10-03T22:39:37.083Z,392.17
2022-10-03T22:42:04.642Z,393.83
2022-10-03T22:44:35.038Z,406.90
2022-10-03T22:47:11.099Z,413.55
2022-10-03T22:49:45.110Z,407.35
2022-10-03T22:52:21.305Z,412.90
2022-10-03T22:54:49.697Z,404.25
2022-10-03T22:57:17.083Z,408.23
2022-10-03T22:59:51.929Z,402.17
2022-10-03T23:02:25.589Z,408.42
2022-10-03T23:04:57.503Z,410.48
2022-10-03T23:07:56.200Z,409.45
2022-10-03T23:10:25.435Z,412.58
2022-10-03T23:13:04.398Z,395.73
2022-10-03T23:15:34.263Z,399.85
2022-10-03T23:18:39.057Z,402.48
2022-10-03T23:21:08.775Z,400.20
2022-10-03T23:24:20.474Z,414.08
2022-10-03T23:27:24.579Z,407.73
2022-10-03T23:30:12.962Z,401.85
2022-10-03T23:32:48.556Z,409.05
2022-10-03T23:35:17.769Z,408.93
2022-10-03T23:37:48.926Z,407.75
2022-10-03T23:40:20.608Z,403.38
2022-10-03T23:42:59.506Z,407.58
2022-10-03T23:45:29.648Z,407.67
2022-10-03T23:48:07.401Z,400.00
2022-10-03T23:50:42.862Z,398.53
2022-10-03T23:53:32.171Z,412.20
2022-10-03T23:56:02.545Z,392.17
2022-10-03T23:58:32.515Z,390.63
